Flight Track Log - Related Links

Times and Time Zones

All times are in EDT time to prevent confusion due to time zone crossing. See the SWA655 flight status page for this flight to view local times or setup timezone preferences in your user account.

Time Position Orientation Groundspeed Altitude Reporting Facility
EDT Latitude Longitude Course Direction KTS MPH feet Rate Location/Type
Wed 02:28:12 PM 33.6442 -117.8861 192° South 132 152 2,000  Level Los Angeles Center
Wed 02:29:14 PM 33.6056 -117.8961 192° South 138 159 3,600 2,274 Climbing Los Angeles Center
Wed 02:30:16 PM 33.5450 -117.9242 201° Southwest 228 262 6,700 3,504 Climbing Los Angeles Center
Wed 02:31:19 PM 33.4814 -117.9808 217° Southwest 273 314 10,900 2,784 Climbing Los Angeles Center
Wed 02:32:21 PM 33.4139 -118.0417 217° Southwest 293 337 12,500 2,468 Climbing Los Angeles Center
Wed 02:33:23 PM 33.3411 -118.1414 229° Southwest 342 394 16,000 2,419 Climbing Los Angeles Center
Wed 02:34:25 PM 33.3542 -118.2667 277° West 373 429 17,500 1,694 Climbing Los Angeles Center
Wed 02:35:27 PM 33.3908 -118.3861 290° West 394 453 19,500 2,516 Climbing Los Angeles Center
Wed 02:36:29 PM 33.4981 -118.4233 344° North 413 475 22,700 1,694 Climbing Los Angeles Center
Wed 02:37:31 PM 33.6206 -118.4250 359° North 434 499 23,000 774 Climbing Los Angeles Center
Wed 02:38:33 PM 33.7447 -118.4289 359° North 433 498 24,300 1,694 Climbing Los Angeles Center
Wed 02:39:35 PM 33.8467 -118.4317 359° North 440 506 26,500 1,584 Climbing Los Angeles Center
Wed 02:40:38 PM 33.9925 -118.4611 350° North 437 503 27,600 720 Climbing Los Angeles Center
Wed 02:41:40 PM 34.1269 -118.5269 338° Northwest 435 501 28,000 192 Climbing Los Angeles Center
Wed 02:42:43 PM 34.2383 -118.5814 338° Northwest 433 498 28,000 484 Level Los Angeles Center
Wed 02:43:44 PM 34.3497 -118.6369 338° Northwest 433 498 29,000 1,415 Climbing Los Angeles Center
Wed 02:44:46 PM 34.4678 -118.6950 338° Northwest 453 521 30,900 2,081 Climbing Los Angeles Center
Wed 02:45:48 PM 34.5861 -118.7536 338° Northwest 461 531 33,300 1,984 Climbing Los Angeles Center
Wed 02:46:50 PM 34.6783 -118.8061 335° Northwest 461 531 35,000 2,160 Climbing Los Angeles Center
Wed 02:47:53 PM 34.8153 -118.9369 322° Northwest 446 513 37,800 1,440 Climbing Los Angeles Center
Wed 02:48:55 PM 34.9006 -119.0164 323° Northwest 451 519 38,000 97 Climbing Los Angeles Center
Wed 02:49:57 PM 35.0200 -119.1275 323° Northwest 451 519 38,000  Level Los Angeles Center
Wed 02:50:59 PM 35.1183 -119.2208 322° Northwest 450 518 38,000  Level Los Angeles Center
Wed 02:52:01 PM 35.2153 -119.3128 322° Northwest 445 512 38,000  Level Los Angeles Center
Wed 02:53:03 PM 35.3119 -119.4056 322° Northwest 446 513 38,000  Level Los Angeles Center
Wed 02:54:05 PM 35.4083 -119.4975 322° Northwest 441 507 38,000  Level Los Angeles Center
Wed 02:55:07 PM 35.5053 -119.5894 322° Northwest 443 510 38,000  Level Los Angeles Center
Wed 02:56:09 PM 35.6189 -119.7006 322° Northwest 439 505 38,000  Level Los Angeles Center
Wed 02:57:22 PM 35.7322 -119.8086 322° Northwest 438 504 38,000  Level Oakland Center
Wed 02:58:23 PM 35.8283 -119.8997 322° Northwest 440 506 38,000  Level Oakland Center
Wed 02:59:25 PM 35.9217 -119.9917 321° Northwest 435 501 38,000  Level Oakland Center
Wed 03:00:26 PM 36.0158 -120.0844 321° Northwest 435 501 38,000 -341 Level Oakland Center
Wed 03:01:28 PM 36.1283 -120.1939 322° Northwest 430 495 37,300 -780 Descending Oakland Center
Wed 03:02:29 PM 36.2219 -120.2861 322° Northwest 432 497 36,400 -927 Descending Oakland Center
Wed 03:03:31 PM 36.3142 -120.3786 321° Northwest 429 494 35,400 -1,317 Descending Oakland Center
Wed 03:04:32 PM 36.4081 -120.4719 321° Northwest 431 496 33,700 -1,918 Descending Oakland Center
Wed 03:05:33 PM 36.4989 -120.5611 322° Northwest 420 483 31,500 -2,146 Descending Oakland Center
Wed 03:06:35 PM 36.5864 -120.6506 321° Northwest 407 468 29,300 -2,098 Descending Oakland Center
Wed 03:07:36 PM 36.6717 -120.7364 321° Northwest 395 455 27,200 -2,049 Descending Oakland Center
Wed 03:08:38 PM 36.7511 -120.8203 320° Northwest 378 435 25,100 -2,146 Descending Oakland Center
Wed 03:09:39 PM 36.8411 -120.9175 319° Northwest 364 419 22,800 -2,244 Descending Oakland Center
Wed 03:10:41 PM 36.9133 -121.0025 317° Northwest 358 412 20,500 -2,244 Descending Oakland Center
Wed 03:11:42 PM 36.9867 -121.0858 318° Northwest 357 411 18,200 -1,918 Descending Oakland Center
Wed 03:12:43 PM 37.0511 -121.1606 317° Northwest 351 404 16,600 -1,610 Descending Oakland Center
Wed 03:13:45 PM 37.1239 -121.2458 317° Northwest 332 382 14,900 -1,707 Descending Oakland Center
Wed 03:14:46 PM 37.1894 -121.3211 318° Northwest 321 369 13,100 -1,756 Descending Oakland Center
Wed 03:15:48 PM 37.2533 -121.3953 317° Northwest 315 362 11,300 -1,512 Descending Oakland Center
Wed 03:16:49 PM 37.3156 -121.4711 316° Northwest 312 359 10,000 -1,180 Descending Oakland Center
Wed 03:17:50 PM 37.3792 -121.5425 318° Northwest 287 330 8,900 -1,000 Descending Oakland Center
Wed 03:18:13 PM 37.4000 -121.5667 317° Northwest 279 321 8,600 -867 Descending Northern Cal TRACON
Wed 03:19:13 PM 37.4667 -121.6500 315° West 281 323 7,700 -950 Descending Northern Cal TRACON
Wed 03:20:13 PM 37.4833 -121.7333 284° West 278 320 6,700 -900 Descending Northern Cal TRACON
Wed 03:21:13 PM 37.5167 -121.8167 297° West 255 293 5,900 -667 Descending Northern Cal TRACON
Wed 03:22:19 PM 37.5333 -121.9167 282° West 225 259 5,300 -700 Descending Northern Cal TRACON
Wed 03:23:13 PM 37.5500 -121.9667 293° West 215 247 4,500 -895 Descending Northern Cal TRACON
Wed 03:24:13 PM 37.5833 -122.0333 302° West 200 230 3,600 -850 Descending Northern Cal TRACON
Wed 03:25:13 PM 37.6167 -122.0833 310° West 185 213 2,800 -881 Descending Northern Cal TRACON
Wed 03:26:02 PM 37.6344 -122.1147 306° West 189 217 2,000 -873 Descending Oakland Center
Wed 03:27:03 PM 37.6631 -122.1569 311° West 174 200 1,200 -738 Descending Oakland Center
Wed 03:28:04 PM 37.6842 -122.1889 310° West 144 166 500 9,171 Descending Oakland Center
Wed 03:29:06 PM 37.7047 -122.2203 310° West 127 146 20,000 18,871 Climbing Oakland Center
Wed 03:31:00 PM 37.7167 -122.2167 270° West  Level FlightAware Approximate

Login

Don't have an account? Register now (free) for customized features, flight alerts, and more!